sensor_id;sensor_type;location;lat;lon;timestamp;pressure;altitude;pressure_sealevel;temperature;humidity
42111;BME280;27766;52.174;5.456;2023-06-22T00:00:16;101898.00;;;19.40;nan
42111;BME280;27766;52.174;5.456;2023-06-22T00:02:43;101884.91;;;19.34;nan
42111;BME280;27766;52.174;5.456;2023-06-22T00:05:11;101884.03;;;19.30;nan
42111;BME280;27766;52.174;5.456;2023-06-22T00:07:38;101879.66;;;19.23;nan
42111;BME280;27766;52.174;5.456;2023-06-22T00:10:05;101884.91;;;19.23;nan
42111;BME280;27766;52.174;5.456;2023-06-22T00:12:33;101887.53;;;19.20;nan
42111;BME280;27766;52.174;5.456;2023-06-22T00:15:00;101887.53;;;19.20;nan
42111;BME280;27766;52.174;5.456;2023-06-22T00:17:27;101890.16;;;19.24;nan
42111;BME280;27766;52.174;5.456;2023-06-22T00:19:55;101890.16;;;19.21;nan
42111;BME280;27766;52.174;5.456;2023-06-22T00:22:22;101889.28;;;19.10;nan
42111;BME280;27766;52.174;5.456;2023-06-22T00:24:55;101890.16;;;19.10;nan
42111;BME280;27766;52.174;5.456;2023-06-22T00:27:23;101889.28;;;19.07;nan
42111;BME280;27766;52.174;5.456;2023-06-22T00:29:50;101892.78;;;19.00;nan
42111;BME280;27766;52.174;5.456;2023-06-22T00:32:17;101892.81;;;18.96;nan
42111;BME280;27766;52.174;5.456;2023-06-22T00:34:46;101880.53;;;18.98;nan
42111;BME280;27766;52.174;5.456;2023-06-22T00:37:13;101877.91;;;18.98;nan
42111;BME280;27766;52.174;5.456;2023-06-22T00:39:40;101877.03;;;19.01;nan
42111;BME280;27766;52.174;5.456;2023-06-22T00:42:08;101877.03;;;18.95;nan
42111;BME280;27766;52.174;5.456;2023-06-22T00:44:36;101863.91;;;18.89;nan
42111;BME280;27766;52.174;5.456;2023-06-22T00:47:03;101861.28;;;18.87;nan
42111;BME280;27766;52.174;5.456;2023-06-22T00:49:31;101863.94;;;18.81;nan
42111;BME280;27766;52.174;5.456;2023-06-22T00:51:58;101866.53;;;18.69;nan
42111;BME280;27766;52.174;5.456;2023-06-22T00:54:26;101869.16;;;18.64;nan
42111;BME280;27766;52.174;5.456;2023-06-22T00:56:54;101855.16;;;18.56;nan
42111;BME280;27766;52.174;5.456;2023-06-22T00:59:23;101870.91;;;18.57;nan
42111;BME280;27766;52.174;5.456;2023-06-22T01:01:51;101855.13;;;18.51;nan
42111;BME280;27766;52.174;5.456;2023-06-22T01:04:18;101874.38;;;18.48;nan
42111;BME280;27766;52.174;5.456;2023-06-22T01:06:58;101869.13;;;18.41;nan
42111;BME280;27766;52.174;5.456;2023-06-22T01:09:36;101863.88;;;18.38;nan
42111;BME280;27766;52.174;5.456;2023-06-22T01:12:10;101862.09;;;18.30;nan
42111;BME280;27766;52.174;5.456;2023-06-22T01:14:43;101862.09;;;18.24;nan
42111;BME280;27766;52.174;5.456;2023-06-22T01:17:15;101865.56;;;18.20;nan
42111;BME280;27766;52.174;5.456;2023-06-22T01:19:52;101870.84;;;18.22;nan
42111;BME280;27766;52.174;5.456;2023-06-22T01:22:28;101873.44;;;18.23;nan
42111;BME280;27766;52.174;5.456;2023-06-22T01:30:09;101868.16;;;18.09;nan
42111;BME280;27766;52.174;5.456;2023-06-22T01:32:39;101855.06;;;18.08;nan
42111;BME280;27766;52.174;5.456;2023-06-22T01:35:08;101848.94;;;17.99;nan
42111;BME280;27766;52.174;5.456;2023-06-22T01:37:38;101862.91;;;18.03;nan
42111;BME280;27766;52.174;5.456;2023-06-22T01:40:07;101857.69;;;18.00;nan
42111;BME280;27766;52.174;5.456;2023-06-22T01:42:37;101862.91;;;18.00;nan
42111;BME280;27766;52.174;5.456;2023-06-22T01:45:05;101863.81;;;18.03;nan
42111;BME280;27766;52.174;5.456;2023-06-22T01:47:33;101865.53;;;18.04;nan
42111;BME280;27766;52.174;5.456;2023-06-22T01:50:01;101865.53;;;18.04;nan
42111;BME280;27766;52.174;5.456;2023-06-22T01:52:28;101857.72;;;18.11;nan
42111;BME280;27766;52.174;5.456;2023-06-22T01:54:56;101858.56;;;18.10;nan
42111;BME280;27766;52.174;5.456;2023-06-22T01:57:25;101848.97;;;18.09;nan
42111;BME280;27766;52.174;5.456;2023-06-22T02:00:07;101852.44;;;18.03;nan
42111;BME280;27766;52.174;5.456;2023-06-22T02:02:53;101856.78;;;17.99;nan
42111;BME280;27766;52.174;5.456;2023-06-22T02:05:26;101856.78;;;17.99;nan
42111;BME280;27766;52.174;5.456;2023-06-22T02:08:15;101850.63;;;17.94;nan
42111;BME280;27766;52.174;5.456;2023-06-22T02:10:46;101848.03;;;17.94;nan
42111;BME280;27766;52.174;5.456;2023-06-22T02:13:16;101848.88;;;17.87;nan
42111;BME280;27766;52.174;5.456;2023-06-22T02:15:45;101847.97;;;17.83;nan
42111;BME280;27766;52.174;5.456;2023-06-22T02:18:13;101847.06;;;17.78;nan
42111;BME280;27766;52.174;5.456;2023-06-22T02:20:40;101846.19;;;17.78;nan
42111;BME280;27766;52.174;5.456;2023-06-22T02:23:08;101845.31;;;17.76;nan
42111;BME280;27766;52.174;5.456;2023-06-22T02:25:35;101847.91;;;17.71;nan
42111;BME280;27766;52.174;5.456;2023-06-22T02:28:03;101840.03;;;17.66;nan
42111;BME280;27766;52.174;5.456;2023-06-22T02:30:31;101839.19;;;17.64;nan
42111;BME280;27766;52.174;5.456;2023-06-22T02:32:59;101837.41;;;17.65;nan
42111;BME280;27766;52.174;5.456;2023-06-22T02:35:27;101837.41;;;17.65;nan
42111;BME280;27766;52.174;5.456;2023-06-22T02:37:59;101831.31;;;17.64;nan
42111;BME280;27766;52.174;5.456;2023-06-22T02:40:27;101834.81;;;17.63;nan
42111;BME280;27766;52.174;5.456;2023-06-22T02:42:57;101840.88;;;17.59;nan
42111;BME280;27766;52.174;5.456;2023-06-22T02:45:25;101839.97;;;17.55;nan
42111;BME280;27766;52.174;5.456;2023-06-22T02:47:52;101848.72;;;17.54;nan
42111;BME280;27766;52.174;5.456;2023-06-22T02:50:19;101836.47;;;17.52;nan
42111;BME280;27766;52.174;5.456;2023-06-22T02:52:47;101840.00;;;17.51;nan
42111;BME280;27766;52.174;5.456;2023-06-22T02:55:14;101834.69;;;17.45;nan
42111;BME280;27766;52.174;5.456;2023-06-22T02:57:41;101832.13;;;17.46;nan
42111;BME280;27766;52.174;5.456;2023-06-22T03:00:12;101827.72;;;17.42;nan
42111;BME280;27766;52.174;5.456;2023-06-22T03:02:48;101825.94;;;17.36;nan
42111;BME280;27766;52.174;5.456;2023-06-22T03:05:16;101825.06;;;17.34;nan
42111;BME280;27766;52.174;5.456;2023-06-22T03:07:45;101833.75;;;17.30;nan
42111;BME280;27766;52.174;5.456;2023-06-22T03:10:14;101837.22;;;17.29;nan
42111;BME280;27766;52.174;5.456;2023-06-22T03:12:42;101836.38;;;17.27;nan
42111;BME280;27766;52.174;5.456;2023-06-22T03:15:11;101837.19;;;17.23;nan
42111;BME280;27766;52.174;5.456;2023-06-22T03:17:39;101832.81;;;17.22;nan
42111;BME280;27766;52.174;5.456;2023-06-22T03:20:09;101836.31;;;17.16;nan
42111;BME280;27766;52.174;5.456;2023-06-22T03:22:41;101837.16;;;17.15;nan
42111;BME280;27766;52.174;5.456;2023-06-22T03:25:09;101834.50;;;17.12;nan
42111;BME280;27766;52.174;5.456;2023-06-22T03:27:43;101829.25;;;17.09;nan
42111;BME280;27766;52.174;5.456;2023-06-22T03:30:15;101831.91;;;17.11;nan
42111;BME280;27766;52.174;5.456;2023-06-22T03:32:42;101822.31;;;17.08;nan
42111;BME280;27766;52.174;5.456;2023-06-22T03:35:10;101820.53;;;17.10;nan
42111;BME280;27766;52.174;5.456;2023-06-22T03:37:41;101818.78;;;17.09;nan
42111;BME280;27766;52.174;5.456;2023-06-22T03:40:08;101823.16;;;17.08;nan
42111;BME280;27766;52.174;5.456;2023-06-22T03:42:36;101809.22;;;17.09;nan
42111;BME280;27766;52.174;5.456;2023-06-22T03:45:04;101811.84;;;17.08;nan
42111;BME280;27766;52.174;5.456;2023-06-22T03:47:32;101812.66;;;17.05;nan
42111;BME280;27766;52.174;5.456;2023-06-22T03:49:59;101815.31;;;17.10;nan
42111;BME280;27766;52.174;5.456;2023-06-22T03:52:26;101812.72;;;17.12;nan
42111;BME280;27766;52.174;5.456;2023-06-22T03:54:54;101809.25;;;17.16;nan
42111;BME280;27766;52.174;5.456;2023-06-22T03:57:21;101809.25;;;17.16;nan
42111;BME280;27766;52.174;5.456;2023-06-22T03:59:48;101810.97;;;17.14;nan
42111;BME280;27766;52.174;5.456;2023-06-22T04:02:16;101810.94;;;17.09;nan
42111;BME280;27766;52.174;5.456;2023-06-22T04:04:45;101810.91;;;17.00;nan
42111;BME280;27766;52.174;5.456;2023-06-22T04:07:13;101806.53;;;16.97;nan
42111;BME280;27766;52.174;5.456;2023-06-22T04:09:40;101802.16;;;16.98;nan
42111;BME280;27766;52.174;5.456;2023-06-22T04:12:07;101792.53;;;16.93;nan
42111;BME280;27766;52.174;5.456;2023-06-22T04:14:35;101798.69;;;16.97;nan
42111;BME280;27766;52.174;5.456;2023-06-22T04:17:02;101790.84;;;16.99;nan
42111;BME280;27766;52.174;5.456;2023-06-22T04:19:29;101789.97;;;16.97;nan
42111;BME280;27766;52.174;5.456;2023-06-22T04:21:56;101785.63;;;17.02;nan
42111;BME280;27766;52.174;5.456;2023-06-22T04:24:24;101782.19;;;17.06;nan
42111;BME280;27766;52.174;5.456;2023-06-22T04:26:52;101788.31;;;17.09;nan
42111;BME280;27766;52.174;5.456;2023-06-22T04:29:22;101790.06;;;17.14;nan
42111;BME280;27766;52.174;5.456;2023-06-22T04:31:56;101770.84;;;17.08;nan
42111;BME280;27766;52.174;5.456;2023-06-22T04:34:25;101784.81;;;17.14;nan
42111;BME280;27766;52.174;5.456;2023-06-22T04:36:55;101791.84;;;17.19;nan
42111;BME280;27766;52.174;5.456;2023-06-22T04:39:23;101784.88;;;17.20;nan
42111;BME280;27766;52.174;5.456;2023-06-22T04:41:50;101784.03;;;17.22;nan
42111;BME280;27766;52.174;5.456;2023-06-22T04:44:18;101788.41;;;17.30;nan
42111;BME280;27766;52.174;5.456;2023-06-22T04:46:59;101790.16;;;17.32;nan
42111;BME280;27766;52.174;5.456;2023-06-22T04:49:30;101795.44;;;17.37;nan
42111;BME280;27766;52.174;5.456;2023-06-22T04:52:05;101796.31;;;17.39;nan
42111;BME280;27766;52.174;5.456;2023-06-22T04:54:35;101803.34;;;17.52;nan
42111;BME280;27766;52.174;5.456;2023-06-22T04:57:04;101799.00;;;17.56;nan
42111;BME280;27766;52.174;5.456;2023-06-22T04:59:32;101797.25;;;17.61;nan
42111;BME280;27766;52.174;5.456;2023-06-22T05:02:01;101801.66;;;17.68;nan
42111;BME280;27766;52.174;5.456;2023-06-22T05:04:30;101800.81;;;17.74;nan
42111;BME280;27766;52.174;5.456;2023-06-22T05:06:59;101799.97;;;17.94;nan
42111;BME280;27766;52.174;5.456;2023-06-22T05:09:30;101802.69;;;18.00;nan
42111;BME280;27766;52.174;5.456;2023-06-22T05:11:57;101812.25;;;18.01;nan
42111;BME280;27766;52.174;5.456;2023-06-22T05:14:25;101809.63;;;17.99;nan
42111;BME280;27766;52.174;5.456;2023-06-22T05:16:52;101804.44;;;18.07;nan
42111;BME280;27766;52.174;5.456;2023-06-22T05:19:19;101800.94;;;18.10;nan
42111;BME280;27766;52.174;5.456;2023-06-22T05:21:47;101805.31;;;18.15;nan
42111;BME280;27766;52.174;5.456;2023-06-22T05:24:14;101808.81;;;18.28;nan
42111;BME280;27766;52.174;5.456;2023-06-22T05:26:42;101805.34;;;18.39;nan
42111;BME280;27766;52.174;5.456;2023-06-22T05:29:09;101800.09;;;18.49;nan
42111;BME280;27766;52.174;5.456;2023-06-22T05:31:36;101794.00;;;18.61;nan
42111;BME280;27766;52.174;5.456;2023-06-22T05:34:04;101800.09;;;18.70;nan
42111;BME280;27766;52.174;5.456;2023-06-22T05:36:31;101806.22;;;18.81;nan
42111;BME280;27766;52.174;5.456;2023-06-22T05:38:59;101801.00;;;18.81;nan
42111;BME280;27766;52.174;5.456;2023-06-22T05:41:26;101801.00;;;18.81;nan
42111;BME280;27766;52.174;5.456;2023-06-22T05:43:53;101790.47;;;18.84;nan
42111;BME280;27766;52.174;5.456;2023-06-22T05:46:21;101800.94;;;18.90;nan
42111;BME280;27766;52.174;5.456;2023-06-22T05:48:48;101809.75;;;18.95;nan
42111;BME280;27766;52.174;5.456;2023-06-22T05:51:16;101801.84;;;19.06;nan
42111;BME280;27766;52.174;5.456;2023-06-22T05:53:43;101814.97;;;19.11;nan
42111;BME280;27766;52.174;5.456;2023-06-22T05:56:11;101801.81;;;19.19;nan
42111;BME280;27766;52.174;5.456;2023-06-22T05:58:39;101804.38;;;19.34;nan
42111;BME280;27766;52.174;5.456;2023-06-22T06:01:06;101812.22;;;19.50;nan
42111;BME280;27766;52.174;5.456;2023-06-22T06:03:33;101805.19;;;19.61;nan
42111;BME280;27766;52.174;5.456;2023-06-22T06:06:01;101804.28;;;19.62;nan
42111;BME280;27766;52.174;5.456;2023-06-22T06:08:29;101809.53;;;19.65;nan
42111;BME280;27766;52.174;5.456;2023-06-22T06:10:57;101807.75;;;19.72;nan
42111;BME280;27766;52.174;5.456;2023-06-22T06:13:24;101798.06;;;19.85;nan
42111;BME280;27766;52.174;5.456;2023-06-22T06:15:51;101810.22;;;20.01;nan
42111;BME280;27766;52.174;5.456;2023-06-22T06:18:22;101808.44;;;20.11;nan
42111;BME280;27766;52.174;5.456;2023-06-22T06:20:49;101805.75;;;20.22;nan
42111;BME280;27766;52.174;5.456;2023-06-22T06:23:16;101801.28;;;20.33;nan
42111;BME280;27766;52.174;5.456;2023-06-22T06:25:50;101798.53;;;20.47;nan
42111;BME280;27766;52.174;5.456;2023-06-22T06:28:17;101794.81;;;20.71;nan
42111;BME280;27766;52.174;5.456;2023-06-22T06:30:44;101786.06;;;20.74;nan
42111;BME280;27766;52.174;5.456;2023-06-22T06:33:14;101793.91;;;20.80;nan
42111;BME280;27766;52.174;5.456;2023-06-22T06:35:41;101790.19;;;21.03;nan
42111;BME280;27766;52.174;5.456;2023-06-22T06:38:09;101783.06;;;21.10;nan
42111;BME280;27766;52.174;5.456;2023-06-22T06:40:36;101776.78;;;21.22;nan
42111;BME280;27766;52.174;5.456;2023-06-22T06:43:04;101788.06;;;21.34;nan
42111;BME280;27766;52.174;5.456;2023-06-22T06:45:31;101788.88;;;21.41;nan
42111;BME280;27766;52.174;5.456;2023-06-22T06:48:00;101780.78;;;21.55;nan
42111;BME280;27766;52.174;5.456;2023-06-22T06:50:28;101777.97;;;21.72;nan
42111;BME280;27766;52.174;5.456;2023-06-22T06:52:56;101771.47;;;21.96;nan
42111;BME280;27766;52.174;5.456;2023-06-22T06:55:26;101769.50;;;22.09;nan
42111;BME280;27766;52.174;5.456;2023-06-22T06:57:53;101770.78;;;22.41;nan
42111;BME280;27766;52.174;5.456;2023-06-22T07:00:21;101771.25;;;22.65;nan
42111;BME280;27766;52.174;5.456;2023-06-22T07:02:49;101769.94;;;22.88;nan
42111;BME280;27766;52.174;5.456;2023-06-22T07:05:16;101771.53;;;22.98;nan
42111;BME280;27766;52.174;5.456;2023-06-22T07:07:44;101767.00;;;23.05;nan
42111;BME280;27766;52.174;5.456;2023-06-22T07:10:11;101768.81;;;23.03;nan
42111;BME280;27766;52.174;5.456;2023-06-22T07:12:39;101774.56;;;23.25;nan
42111;BME280;27766;52.174;5.456;2023-06-22T07:15:08;101764.06;;;23.22;nan
42111;BME280;27766;52.174;5.456;2023-06-22T07:17:36;101760.47;;;23.24;nan
42111;BME280;27766;52.174;5.456;2023-06-22T07:20:05;101762.84;;;23.38;nan
42111;BME280;27766;52.174;5.456;2023-06-22T07:22:41;101751.84;;;23.18;nan
42111;BME280;27766;52.174;5.456;2023-06-22T07:25:09;101762.19;;;23.27;nan
42111;BME280;27766;52.174;5.456;2023-06-22T07:27:38;101765.00;;;23.19;nan
42111;BME280;27766;52.174;5.456;2023-06-22T07:30:10;101768.34;;;23.26;nan
42111;BME280;27766;52.174;5.456;2023-06-22T07:32:37;101776.00;;;23.40;nan
42111;BME280;27766;52.174;5.456;2023-06-22T07:35:05;101779.22;;;23.54;nan
42111;BME280;27766;52.174;5.456;2023-06-22T07:37:33;101764.81;;;23.69;nan
42111;BME280;27766;52.174;5.456;2023-06-22T07:40:02;101768.59;;;23.58;nan
42111;BME280;27766;52.174;5.456;2023-06-22T07:42:33;101761.94;;;23.80;nan
42111;BME280;27766;52.174;5.456;2023-06-22T07:45:01;101753.78;;;23.90;nan
42111;BME280;27766;52.174;5.456;2023-06-22T07:47:29;101761.41;;;24.03;nan
42111;BME280;27766;52.174;5.456;2023-06-22T07:49:58;101756.66;;;24.18;nan
42111;BME280;27766;52.174;5.456;2023-06-22T07:52:29;101752.03;;;24.26;nan
42111;BME280;27766;52.174;5.456;2023-06-22T07:54:56;101743.13;;;24.30;nan
42111;BME280;27766;52.174;5.456;2023-06-22T07:57:24;101742.22;;;24.31;nan
42111;BME280;27766;52.174;5.456;2023-06-22T08:00:00;101746.56;;;24.34;nan
42111;BME280;27766;52.174;5.456;2023-06-22T08:02:28;101741.41;;;24.29;nan
42111;BME280;27766;52.174;5.456;2023-06-22T08:04:55;101737.06;;;24.27;nan
42111;BME280;27766;52.174;5.456;2023-06-22T08:07:37;101730.81;;;24.29;nan
42111;BME280;27766;52.174;5.456;2023-06-22T08:10:06;101739.31;;;24.41;nan
42111;BME280;27766;52.174;5.456;2023-06-22T08:12:33;101730.31;;;24.49;nan
42111;BME280;27766;52.174;5.456;2023-06-22T08:15:01;101723.06;;;24.56;nan
42111;BME280;27766;52.174;5.456;2023-06-22T08:17:28;101720.56;;;24.52;nan
42111;BME280;27766;52.174;5.456;2023-06-22T08:19:55;101718.09;;;24.44;nan
42111;BME280;27766;52.174;5.456;2023-06-22T08:22:24;101715.94;;;24.58;nan
42111;BME280;27766;52.174;5.456;2023-06-22T08:24:51;101712.19;;;24.69;nan
42111;BME280;27766;52.174;5.456;2023-06-22T08:27:18;101709.94;;;24.86;nan
42111;BME280;27766;52.174;5.456;2023-06-22T08:29:48;101712.88;;;25.07;nan
42111;BME280;27766;52.174;5.456;2023-06-22T08:32:16;101700.28;;;25.15;nan
42111;BME280;27766;52.174;5.456;2023-06-22T08:34:45;101698.69;;;25.09;nan
42111;BME280;27766;52.174;5.456;2023-06-22T08:37:12;101692.47;;;25.10;nan
42111;BME280;27766;52.174;5.456;2023-06-22T08:39:39;101684.41;;;25.13;nan
42111;BME280;27766;52.174;5.456;2023-06-22T08:42:08;101686.13;;;25.16;nan
42111;BME280;27766;52.174;5.456;2023-06-22T08:44:36;101687.13;;;25.12;nan
42111;BME280;27766;52.174;5.456;2023-06-22T08:47:03;101687.31;;;25.06;nan
42111;BME280;27766;52.174;5.456;2023-06-22T08:49:30;101681.22;;;25.02;nan
42111;BME280;27766;52.174;5.456;2023-06-22T08:51:58;101681.28;;;25.01;nan
42111;BME280;27766;52.174;5.456;2023-06-22T08:54:25;101664.50;;;25.02;nan
42111;BME280;27766;52.174;5.456;2023-06-22T08:56:52;101675.53;;;25.16;nan
42111;BME280;27766;52.174;5.456;2023-06-22T08:59:20;101668.22;;;25.24;nan
42111;BME280;27766;52.174;5.456;2023-06-22T09:01:47;101665.75;;;25.18;nan
42111;BME280;27766;52.174;5.456;2023-06-22T09:04:15;101669.28;;;25.19;nan
42111;BME280;27766;52.174;5.456;2023-06-22T09:06:43;101677.34;;;25.44;nan
42111;BME280;27766;52.174;5.456;2023-06-22T09:09:13;101676.09;;;25.56;nan
42111;BME280;27766;52.174;5.456;2023-06-22T09:11:41;101679.44;;;25.63;nan
42111;BME280;27766;52.174;5.456;2023-06-22T09:14:10;101673.53;;;25.54;nan
42111;BME280;27766;52.174;5.456;2023-06-22T09:16:38;101674.56;;;25.49;nan
42111;BME280;27766;52.174;5.456;2023-06-22T09:19:06;101673.25;;;25.62;nan
42111;BME280;27766;52.174;5.456;2023-06-22T09:21:33;101678.81;;;25.81;nan
42111;BME280;27766;52.174;5.456;2023-06-22T09:24:01;101663.69;;;25.85;nan
42111;BME280;27766;52.174;5.456;2023-06-22T09:26:28;101653.44;;;26.01;nan
42111;BME280;27766;52.174;5.456;2023-06-22T09:28:55;101666.97;;;26.20;nan
42111;BME280;27766;52.174;5.456;2023-06-22T09:31:23;101659.50;;;26.31;nan
42111;BME280;27766;52.174;5.456;2023-06-22T09:33:55;101661.06;;;26.37;nan
42111;BME280;27766;52.174;5.456;2023-06-22T09:36:22;101660.16;;;26.38;nan
42111;BME280;27766;52.174;5.456;2023-06-22T09:38:50;101647.94;;;26.58;nan
42111;BME280;27766;52.174;5.456;2023-06-22T09:41:23;101657.97;;;26.49;nan
42111;BME280;27766;52.174;5.456;2023-06-22T09:43:50;101659.53;;;26.55;nan
42111;BME280;27766;52.174;5.456;2023-06-22T09:46:19;101657.91;;;26.76;nan
42111;BME280;27766;52.174;5.456;2023-06-22T09:48:48;101660.09;;;26.89;nan
42111;BME280;27766;52.174;5.456;2023-06-22T09:51:16;101665.75;;;27.03;nan
42111;BME280;27766;52.174;5.456;2023-06-22T09:53:44;101658.69;;;27.02;nan
42111;BME280;27766;52.174;5.456;2023-06-22T09:56:11;101654.53;;;27.18;nan
42111;BME280;27766;52.174;5.456;2023-06-22T09:58:43;101654.28;;;27.02;nan
42111;BME280;27766;52.174;5.456;2023-06-22T10:01:10;101644.09;;;26.90;nan
42111;BME280;27766;52.174;5.456;2023-06-22T10:03:37;101660.56;;;26.76;nan
42111;BME280;27766;52.174;5.456;2023-06-22T10:06:14;101654.50;;;26.71;nan
42111;BME280;27766;52.174;5.456;2023-06-22T10:08:42;101655.66;;;26.64;nan
42111;BME280;27766;52.174;5.456;2023-06-22T10:11:09;101643.59;;;26.55;nan
42111;BME280;27766;52.174;5.456;2023-06-22T10:13:36;101659.59;;;26.53;nan
42111;BME280;27766;52.174;5.456;2023-06-22T10:16:04;101659.09;;;26.42;nan
42111;BME280;27766;52.174;5.456;2023-06-22T10:18:31;101660.38;;;26.32;nan
42111;BME280;27766;52.174;5.456;2023-06-22T10:20:59;101656.38;;;26.18;nan
42111;BME280;27766;52.174;5.456;2023-06-22T10:23:26;101644.66;;;25.99;nan
42111;BME280;27766;52.174;5.456;2023-06-22T10:25:54;101643.22;;;25.88;nan
42111;BME280;27766;52.174;5.456;2023-06-22T10:28:21;101643.72;;;25.74;nan
42111;BME280;27766;52.174;5.456;2023-06-22T10:30:48;101637.13;;;25.59;nan
42111;BME280;27766;52.174;5.456;2023-06-22T10:33:16;101640.59;;;25.62;nan
42111;BME280;27766;52.174;5.456;2023-06-22T10:35:43;101645.13;;;25.58;nan
42111;BME280;27766;52.174;5.456;2023-06-22T10:38:10;101650.78;;;25.47;nan
42111;BME280;27766;52.174;5.456;2023-06-22T10:40:38;101657.91;;;25.45;nan
42111;BME280;27766;52.174;5.456;2023-06-22T10:43:06;101661.69;;;25.36;nan
42111;BME280;27766;52.174;5.456;2023-06-22T10:45:34;101654.72;;;25.32;nan
42111;BME280;27766;52.174;5.456;2023-06-22T10:48:01;101655.78;;;25.26;nan
42111;BME280;27766;52.174;5.456;2023-06-22T10:50:28;101651.38;;;25.27;nan
42111;BME280;27766;52.174;5.456;2023-06-22T10:52:56;101654.03;;;25.25;nan
42111;BME280;27766;52.174;5.456;2023-06-22T10:55:25;101656.09;;;25.17;nan
42111;BME280;27766;52.174;5.456;2023-06-22T10:57:53;101654.28;;;25.18;nan
42111;BME280;27766;52.174;5.456;2023-06-22T11:00:20;101653.47;;;25.16;nan
42111;BME280;27766;52.174;5.456;2023-06-22T11:02:48;101649.78;;;25.21;nan
42111;BME280;27766;52.174;5.456;2023-06-22T11:05:16;101648.16;;;25.16;nan
42111;BME280;27766;52.174;5.456;2023-06-22T11:07:43;101655.13;;;25.20;nan
42111;BME280;27766;52.174;5.456;2023-06-22T11:10:16;101647.97;;;25.22;nan
42111;BME280;27766;52.174;5.456;2023-06-22T11:12:43;101649.56;;;25.27;nan
42111;BME280;27766;52.174;5.456;2023-06-22T11:15:11;101642.78;;;25.19;nan
42111;BME280;27766;52.174;5.456;2023-06-22T11:17:39;101637.31;;;25.25;nan
42111;BME280;27766;52.174;5.456;2023-06-22T11:20:06;101637.09;;;25.31;nan
42111;BME280;27766;52.174;5.456;2023-06-22T11:22:39;101640.31;;;25.42;nan
42111;BME280;27766;52.174;5.456;2023-06-22T11:25:07;101640.97;;;25.49;nan
42111;BME280;27766;52.174;5.456;2023-06-22T11:27:36;101639.81;;;25.29;nan
42111;BME280;27766;52.174;5.456;2023-06-22T11:30:04;101638.59;;;25.41;nan
42111;BME280;27766;52.174;5.456;2023-06-22T11:32:32;101628.63;;;25.48;nan
42111;BME280;27766;52.174;5.456;2023-06-22T11:34:59;101626.53;;;25.59;nan
42111;BME280;27766;52.174;5.456;2023-06-22T11:37:27;101620.38;;;25.59;nan
42111;BME280;27766;52.174;5.456;2023-06-22T11:39:54;101618.16;;;25.45;nan
42111;BME280;27766;52.174;5.456;2023-06-22T11:42:32;101622.53;;;25.46;nan
42111;BME280;27766;52.174;5.456;2023-06-22T11:44:59;101619.91;;;25.44;nan
42111;BME280;27766;52.174;5.456;2023-06-22T11:47:27;101597.44;;;25.58;nan
42111;BME280;27766;52.174;5.456;2023-06-22T11:49:54;101603.44;;;25.63;nan
42111;BME280;27766;52.174;5.456;2023-06-22T11:52:22;101593.66;;;25.65;nan
42111;BME280;27766;52.174;5.456;2023-06-22T11:54:49;101597.16;;;25.66;nan
42111;BME280;27766;52.174;5.456;2023-06-22T11:57:17;101596.47;;;25.60;nan
42111;BME280;27766;52.174;5.456;2023-06-22T11:59:44;101593.88;;;25.59;nan
42111;BME280;27766;52.174;5.456;2023-06-22T12:02:12;101588.59;;;25.57;nan
42111;BME280;27766;52.174;5.456;2023-06-22T12:04:39;101584.22;;;25.56;nan
42111;BME280;27766;52.174;5.456;2023-06-22T12:07:06;101594.03;;;25.53;nan
42111;BME280;27766;52.174;5.456;2023-06-22T12:09:33;101591.53;;;25.48;nan
42111;BME280;27766;52.174;5.456;2023-06-22T12:12:01;101587.41;;;25.39;nan
42111;BME280;27766;52.174;5.456;2023-06-22T12:14:28;101586.25;;;25.48;nan
42111;BME280;27766;52.174;5.456;2023-06-22T12:16:57;101577.38;;;25.49;nan
42111;BME280;27766;52.174;5.456;2023-06-22T12:19:24;101576.31;;;25.55;nan
42111;BME280;27766;52.174;5.456;2023-06-22T12:21:51;101580.75;;;25.54;nan
42111;BME280;27766;52.174;5.456;2023-06-22T12:24:19;101578.13;;;25.54;nan
42111;BME280;27766;52.174;5.456;2023-06-22T12:26:46;101574.94;;;25.43;nan
42111;BME280;27766;52.174;5.456;2023-06-22T12:29:13;101573.38;;;25.36;nan
42111;BME280;27766;52.174;5.456;2023-06-22T12:31:41;101583.16;;;25.34;nan
42111;BME280;27766;52.174;5.456;2023-06-22T12:34:09;101583.63;;;25.20;nan
42111;BME280;27766;52.174;5.456;2023-06-22T12:36:36;101572.97;;;25.21;nan
42111;BME280;27766;52.174;5.456;2023-06-22T12:39:03;101566.13;;;25.14;nan
42111;BME280;27766;52.174;5.456;2023-06-22T12:41:31;101572.38;;;25.11;nan
42111;BME280;27766;52.174;5.456;2023-06-22T12:43:58;101565.50;;;25.06;nan
42111;BME280;27766;52.174;5.456;2023-06-22T12:46:25;101572.75;;;24.99;nan
42111;BME280;27766;52.174;5.456;2023-06-22T12:48:53;101565.91;;;24.93;nan
42111;BME280;27766;52.174;5.456;2023-06-22T12:51:21;101563.72;;;24.78;nan
42111;BME280;27766;52.174;5.456;2023-06-22T12:53:49;101565.47;;;24.77;nan
42111;BME280;27766;52.174;5.456;2023-06-22T12:56:16;101556.56;;;24.80;nan
42111;BME280;27766;52.174;5.456;2023-06-22T12:58:44;101553.97;;;24.78;nan
42111;BME280;27766;52.174;5.456;2023-06-22T13:01:11;101557.66;;;24.74;nan
42111;BME280;27766;52.174;5.456;2023-06-22T13:03:39;101557.53;;;24.77;nan
42111;BME280;27766;52.174;5.456;2023-06-22T13:06:06;101547.06;;;24.74;nan
42111;BME280;27766;52.174;5.456;2023-06-22T13:08:34;101550.00;;;24.63;nan
42111;BME280;27766;52.174;5.456;2023-06-22T13:11:21;101546.53;;;24.61;nan
42111;BME280;27766;52.174;5.456;2023-06-22T13:13:48;101537.94;;;24.53;nan
42111;BME280;27766;52.174;5.456;2023-06-22T13:16:16;101547.06;;;24.43;nan
42111;BME280;27766;52.174;5.456;2023-06-22T13:18:43;101532.50;;;24.28;nan
42111;BME280;27766;52.174;5.456;2023-06-22T13:21:10;101533.84;;;24.11;nan